sensor_id;sensor_type;location;lat;lon;timestamp;temperature;humidity
23532;DHT22;11943;52.270;20.978;2023-02-01T00:01:42;3.20;99.90
23532;DHT22;11943;52.270;20.978;2023-02-01T00:04:07;3.20;99.90
23532;DHT22;11943;52.270;20.978;2023-02-01T00:06:33;3.30;99.90
23532;DHT22;11943;52.270;20.978;2023-02-01T00:08:58;3.30;99.90
23532;DHT22;11943;52.270;20.978;2023-02-01T00:11:24;3.30;99.90
23532;DHT22;11943;52.270;20.978;2023-02-01T00:13:49;3.30;99.90
23532;DHT22;11943;52.270;20.978;2023-02-01T00:16:16;3.40;99.90
23532;DHT22;11943;52.270;20.978;2023-02-01T00:18:42;3.40;99.90
23532;DHT22;11943;52.270;20.978;2023-02-01T00:21:10;3.40;99.90
23532;DHT22;11943;52.270;20.978;2023-02-01T00:23:35;3.50;99.90
23532;DHT22;11943;52.270;20.978;2023-02-01T00:26:06;3.50;99.90
23532;DHT22;11943;52.270;20.978;2023-02-01T00:28:32;3.50;99.90
23532;DHT22;11943;52.270;20.978;2023-02-01T00:30:58;3.50;99.90
23532;DHT22;11943;52.270;20.978;2023-02-01T00:33:24;3.50;99.90
23532;DHT22;11943;52.270;20.978;2023-02-01T00:35:50;3.50;99.90
23532;DHT22;11943;52.270;20.978;2023-02-01T00:38:15;3.50;99.90
23532;DHT22;11943;52.270;20.978;2023-02-01T00:40:41;3.60;99.90
23532;DHT22;11943;52.270;20.978;2023-02-01T00:43:06;3.60;99.90
23532;DHT22;11943;52.270;20.978;2023-02-01T00:45:32;3.60;99.90
23532;DHT22;11943;52.270;20.978;2023-02-01T00:47:57;3.60;99.90
23532;DHT22;11943;52.270;20.978;2023-02-01T00:50:23;3.60;99.90
23532;DHT22;11943;52.270;20.978;2023-02-01T00:52:48;3.70;99.90
23532;DHT22;11943;52.270;20.978;2023-02-01T00:55:14;3.70;99.90
23532;DHT22;11943;52.270;20.978;2023-02-01T00:57:39;3.80;99.90
23532;DHT22;11943;52.270;20.978;2023-02-01T01:00:05;3.80;99.90
23532;DHT22;11943;52.270;20.978;2023-02-01T01:02:30;3.80;99.90
23532;DHT22;11943;52.270;20.978;2023-02-01T01:04:56;3.70;99.90
23532;DHT22;11943;52.270;20.978;2023-02-01T01:07:21;3.70;99.90
23532;DHT22;11943;52.270;20.978;2023-02-01T01:09:47;3.70;99.90
23532;DHT22;11943;52.270;20.978;2023-02-01T01:12:12;3.70;99.90
23532;DHT22;11943;52.270;20.978;2023-02-01T01:14:38;3.60;99.90
23532;DHT22;11943;52.270;20.978;2023-02-01T01:17:03;3.60;99.90
23532;DHT22;11943;52.270;20.978;2023-02-01T01:19:29;3.60;99.90
23532;DHT22;11943;52.270;20.978;2023-02-01T01:21:54;3.50;99.90
23532;DHT22;11943;52.270;20.978;2023-02-01T01:24:20;3.50;99.90
23532;DHT22;11943;52.270;20.978;2023-02-01T01:26:45;3.50;99.90
23532;DHT22;11943;52.270;20.978;2023-02-01T01:29:11;3.40;99.90
23532;DHT22;11943;52.270;20.978;2023-02-01T01:31:36;3.40;99.90
23532;DHT22;11943;52.270;20.978;2023-02-01T01:34:02;3.40;99.90
23532;DHT22;11943;52.270;20.978;2023-02-01T01:36:28;3.40;99.90
23532;DHT22;11943;52.270;20.978;2023-02-01T01:38:53;3.50;99.90
23532;DHT22;11943;52.270;20.978;2023-02-01T01:41:23;3.50;99.90
23532;DHT22;11943;52.270;20.978;2023-02-01T01:44:02;3.40;99.90
23532;DHT22;11943;52.270;20.978;2023-02-01T01:46:29;3.40;99.90
23532;DHT22;11943;52.270;20.978;2023-02-01T01:51:23;3.40;99.90
23532;DHT22;11943;52.270;20.978;2023-02-01T01:53:53;3.30;99.90
23532;DHT22;11943;52.270;20.978;2023-02-01T01:56:19;3.40;99.90
23532;DHT22;11943;52.270;20.978;2023-02-01T01:58:45;3.40;99.90
23532;DHT22;11943;52.270;20.978;2023-02-01T02:01:10;3.30;99.90
23532;DHT22;11943;52.270;20.978;2023-02-01T02:03:40;3.30;99.90
23532;DHT22;11943;52.270;20.978;2023-02-01T02:08:51;3.40;99.90
23532;DHT22;11943;52.270;20.978;2023-02-01T02:11:17;3.40;99.90
23532;DHT22;11943;52.270;20.978;2023-02-01T02:13:43;3.40;99.90
23532;DHT22;11943;52.270;20.978;2023-02-01T02:21:42;3.40;99.90
23532;DHT22;11943;52.270;20.978;2023-02-01T02:31:58;3.40;99.90
23532;DHT22;11943;52.270;20.978;2023-02-01T02:35:02;3.40;99.90
23532;DHT22;11943;52.270;20.978;2023-02-01T02:37:41;3.40;99.90
23532;DHT22;11943;52.270;20.978;2023-02-01T02:42:55;3.70;99.90
23532;DHT22;11943;52.270;20.978;2023-02-01T02:45:50;3.30;99.90
23532;DHT22;11943;52.270;20.978;2023-02-01T02:48:59;3.40;99.90
23532;DHT22;11943;52.270;20.978;2023-02-01T02:51:23;3.40;99.90
23532;DHT22;11943;52.270;20.978;2023-02-01T02:54:15;3.40;99.90
23532;DHT22;11943;52.270;20.978;2023-02-01T02:57:02;3.40;99.90
23532;DHT22;11943;52.270;20.978;2023-02-01T02:59:47;3.40;99.90
23532;DHT22;11943;52.270;20.978;2023-02-01T03:02:32;3.40;99.90
23532;DHT22;11943;52.270;20.978;2023-02-01T03:05:16;3.40;99.90
23532;DHT22;11943;52.270;20.978;2023-02-01T03:10:18;3.40;99.90
23532;DHT22;11943;52.270;20.978;2023-02-01T03:12:49;3.30;99.90
23532;DHT22;11943;52.270;20.978;2023-02-01T03:15:37;3.40;99.90
23532;DHT22;11943;52.270;20.978;2023-02-01T03:18:05;3.20;99.90
23532;DHT22;11943;52.270;20.978;2023-02-01T03:20:32;3.40;99.90
23532;DHT22;11943;52.270;20.978;2023-02-01T03:22:58;3.40;99.90
23532;DHT22;11943;52.270;20.978;2023-02-01T03:25:28;3.30;99.90
23532;DHT22;11943;52.270;20.978;2023-02-01T03:27:57;3.30;99.90
23532;DHT22;11943;52.270;20.978;2023-02-01T03:30:25;3.30;99.90
23532;DHT22;11943;52.270;20.978;2023-02-01T03:32:52;3.30;99.90
23532;DHT22;11943;52.270;20.978;2023-02-01T03:35:42;3.40;99.90
23532;DHT22;11943;52.270;20.978;2023-02-01T03:40:55;3.20;99.90
23532;DHT22;11943;52.270;20.978;2023-02-01T03:43:21;3.20;99.90
23532;DHT22;11943;52.270;20.978;2023-02-01T03:45:52;3.10;99.90
23532;DHT22;11943;52.270;20.978;2023-02-01T03:48:19;3.10;99.90
23532;DHT22;11943;52.270;20.978;2023-02-01T03:50:49;3.10;99.90
23532;DHT22;11943;52.270;20.978;2023-02-01T03:53:17;3.10;99.90
23532;DHT22;11943;52.270;20.978;2023-02-01T03:55:44;3.10;99.90
23532;DHT22;11943;52.270;20.978;2023-02-01T03:58:13;3.00;99.90
23532;DHT22;11943;52.270;20.978;2023-02-01T04:00:39;3.00;99.90
23532;DHT22;11943;52.270;20.978;2023-02-01T04:03:05;3.00;99.90
23532;DHT22;11943;52.270;20.978;2023-02-01T04:05:31;3.10;99.90
23532;DHT22;11943;52.270;20.978;2023-02-01T04:07:56;3.10;99.90
23532;DHT22;11943;52.270;20.978;2023-02-01T04:10:22;3.10;99.90
23532;DHT22;11943;52.270;20.978;2023-02-01T04:12:47;3.10;99.90
23532;DHT22;11943;52.270;20.978;2023-02-01T04:15:13;3.10;99.90
23532;DHT22;11943;52.270;20.978;2023-02-01T04:17:39;3.10;99.90
23532;DHT22;11943;52.270;20.978;2023-02-01T04:20:04;3.10;99.90
23532;DHT22;11943;52.270;20.978;2023-02-01T04:22:30;3.10;99.90
23532;DHT22;11943;52.270;20.978;2023-02-01T04:24:55;3.20;99.90
23532;DHT22;11943;52.270;20.978;2023-02-01T04:27:21;3.20;99.90
23532;DHT22;11943;52.270;20.978;2023-02-01T04:29:46;3.20;99.90
23532;DHT22;11943;52.270;20.978;2023-02-01T04:32:14;3.20;99.90
23532;DHT22;11943;52.270;20.978;2023-02-01T04:34:41;3.30;99.90
23532;DHT22;11943;52.270;20.978;2023-02-01T04:37:06;3.30;99.90
23532;DHT22;11943;52.270;20.978;2023-02-01T04:39:32;3.30;99.90
23532;DHT22;11943;52.270;20.978;2023-02-01T04:41:58;3.30;99.90
23532;DHT22;11943;52.270;20.978;2023-02-01T04:44:23;3.40;99.90
23532;DHT22;11943;52.270;20.978;2023-02-01T04:46:49;3.40;99.90
23532;DHT22;11943;52.270;20.978;2023-02-01T04:49:15;3.40;99.90
23532;DHT22;11943;52.270;20.978;2023-02-01T04:51:40;3.40;99.90
23532;DHT22;11943;52.270;20.978;2023-02-01T04:54:07;3.40;99.90
23532;DHT22;11943;52.270;20.978;2023-02-01T04:56:33;3.40;99.90
23532;DHT22;11943;52.270;20.978;2023-02-01T04:59:00;3.40;99.90
23532;DHT22;11943;52.270;20.978;2023-02-01T05:01:25;3.50;99.90
23532;DHT22;11943;52.270;20.978;2023-02-01T05:03:51;3.40;99.90
23532;DHT22;11943;52.270;20.978;2023-02-01T05:06:16;3.40;99.90
23532;DHT22;11943;52.270;20.978;2023-02-01T05:08:42;3.40;99.90
23532;DHT22;11943;52.270;20.978;2023-02-01T05:11:07;3.50;99.90
23532;DHT22;11943;52.270;20.978;2023-02-01T05:13:53;3.40;99.90
23532;DHT22;11943;52.270;20.978;2023-02-01T05:16:18;3.40;99.90
23532;DHT22;11943;52.270;20.978;2023-02-01T05:18:44;3.40;99.90
23532;DHT22;11943;52.270;20.978;2023-02-01T05:21:10;3.40;99.90
23532;DHT22;11943;52.270;20.978;2023-02-01T05:23:35;3.40;99.90
23532;DHT22;11943;52.270;20.978;2023-02-01T05:26:21;3.40;99.90
23532;DHT22;11943;52.270;20.978;2023-02-01T05:28:46;3.40;99.90
23532;DHT22;11943;52.270;20.978;2023-02-01T05:31:12;3.50;99.90
23532;DHT22;11943;52.270;20.978;2023-02-01T05:33:37;3.50;99.90
23532;DHT22;11943;52.270;20.978;2023-02-01T05:36:03;3.40;99.90
23532;DHT22;11943;52.270;20.978;2023-02-01T05:38:28;3.50;99.90
23532;DHT22;11943;52.270;20.978;2023-02-01T05:40:55;3.50;99.90
23532;DHT22;11943;52.270;20.978;2023-02-01T05:43:21;3.40;99.90
23532;DHT22;11943;52.270;20.978;2023-02-01T05:45:47;3.40;99.90
23532;DHT22;11943;52.270;20.978;2023-02-01T05:48:12;3.40;99.90
23532;DHT22;11943;52.270;20.978;2023-02-01T05:50:38;3.50;99.90
23532;DHT22;11943;52.270;20.978;2023-02-01T05:53:04;3.50;99.90
23532;DHT22;11943;52.270;20.978;2023-02-01T05:55:30;3.60;99.90
23532;DHT22;11943;52.270;20.978;2023-02-01T05:57:55;3.40;99.90
23532;DHT22;11943;52.270;20.978;2023-02-01T06:00:21;3.50;99.90
23532;DHT22;11943;52.270;20.978;2023-02-01T06:02:47;3.50;99.90
23532;DHT22;11943;52.270;20.978;2023-02-01T06:05:12;3.50;99.90
23532;DHT22;11943;52.270;20.978;2023-02-01T06:07:38;3.40;99.90
23532;DHT22;11943;52.270;20.978;2023-02-01T06:10:03;3.40;99.90
23532;DHT22;11943;52.270;20.978;2023-02-01T06:12:29;3.40;99.90
23532;DHT22;11943;52.270;20.978;2023-02-01T06:14:55;3.40;99.90
23532;DHT22;11943;52.270;20.978;2023-02-01T06:17:20;3.40;99.90
23532;DHT22;11943;52.270;20.978;2023-02-01T06:19:46;3.50;99.90
23532;DHT22;11943;52.270;20.978;2023-02-01T06:22:13;3.50;99.90
23532;DHT22;11943;52.270;20.978;2023-02-01T06:24:39;3.40;99.90
23532;DHT22;11943;52.270;20.978;2023-02-01T06:27:06;3.40;99.90
23532;DHT22;11943;52.270;20.978;2023-02-01T06:29:32;3.50;99.90
23532;DHT22;11943;52.270;20.978;2023-02-01T06:31:58;3.40;99.90
23532;DHT22;11943;52.270;20.978;2023-02-01T06:34:23;3.60;99.90
23532;DHT22;11943;52.270;20.978;2023-02-01T06:36:49;3.50;99.90
23532;DHT22;11943;52.270;20.978;2023-02-01T06:39:14;3.40;99.90
23532;DHT22;11943;52.270;20.978;2023-02-01T06:41:50;3.50;99.90
23532;DHT22;11943;52.270;20.978;2023-02-01T06:44:15;3.50;99.90
23532;DHT22;11943;52.270;20.978;2023-02-01T06:46:42;3.50;99.90
23532;DHT22;11943;52.270;20.978;2023-02-01T06:49:07;3.50;99.90
23532;DHT22;11943;52.270;20.978;2023-02-01T06:51:33;3.50;99.90
23532;DHT22;11943;52.270;20.978;2023-02-01T06:53:59;3.50;99.90
23532;DHT22;11943;52.270;20.978;2023-02-01T06:56:24;3.50;99.90
23532;DHT22;11943;52.270;20.978;2023-02-01T06:58:50;3.50;99.90
23532;DHT22;11943;52.270;20.978;2023-02-01T07:01:16;3.50;99.90
23532;DHT22;11943;52.270;20.978;2023-02-01T07:03:41;3.50;99.90
23532;DHT22;11943;52.270;20.978;2023-02-01T07:06:07;3.50;99.90
23532;DHT22;11943;52.270;20.978;2023-02-01T07:08:34;3.50;99.90
23532;DHT22;11943;52.270;20.978;2023-02-01T07:11:04;3.50;99.90
23532;DHT22;11943;52.270;20.978;2023-02-01T07:13:30;3.50;99.90
23532;DHT22;11943;52.270;20.978;2023-02-01T07:15:57;3.50;99.90
23532;DHT22;11943;52.270;20.978;2023-02-01T07:18:23;3.50;99.90
23532;DHT22;11943;52.270;20.978;2023-02-01T07:20:51;3.50;99.90
23532;DHT22;11943;52.270;20.978;2023-02-01T07:23:17;3.50;99.90
23532;DHT22;11943;52.270;20.978;2023-02-01T07:25:42;3.50;99.90
23532;DHT22;11943;52.270;20.978;2023-02-01T07:28:08;3.50;99.90
23532;DHT22;11943;52.270;20.978;2023-02-01T07:30:33;3.40;99.90
23532;DHT22;11943;52.270;20.978;2023-02-01T07:32:59;3.50;99.90
23532;DHT22;11943;52.270;20.978;2023-02-01T07:35:29;3.50;99.90
23532;DHT22;11943;52.270;20.978;2023-02-01T07:37:56;3.50;99.90
23532;DHT22;11943;52.270;20.978;2023-02-01T07:40:22;3.50;99.90
23532;DHT22;11943;52.270;20.978;2023-02-01T07:42:56;3.50;99.90
23532;DHT22;11943;52.270;20.978;2023-02-01T07:45:22;3.50;99.90
23532;DHT22;11943;52.270;20.978;2023-02-01T07:47:48;3.40;99.90
23532;DHT22;11943;52.270;20.978;2023-02-01T07:50:14;3.50;99.90
23532;DHT22;11943;52.270;20.978;2023-02-01T07:52:39;3.50;99.90
23532;DHT22;11943;52.270;20.978;2023-02-01T07:55:06;3.50;99.90
23532;DHT22;11943;52.270;20.978;2023-02-01T07:57:32;3.50;99.90
23532;DHT22;11943;52.270;20.978;2023-02-01T07:59:57;3.50;99.90
23532;DHT22;11943;52.270;20.978;2023-02-01T08:02:41;3.60;99.90
23532;DHT22;11943;52.270;20.978;2023-02-01T08:05:06;3.60;99.90
23532;DHT22;11943;52.270;20.978;2023-02-01T08:07:32;3.50;99.90
23532;DHT22;11943;52.270;20.978;2023-02-01T08:09:58;3.60;99.90
23532;DHT22;11943;52.270;20.978;2023-02-01T08:12:25;3.50;99.90
23532;DHT22;11943;52.270;20.978;2023-02-01T08:14:50;3.60;99.90
23532;DHT22;11943;52.270;20.978;2023-02-01T08:17:16;3.60;99.90
23532;DHT22;11943;52.270;20.978;2023-02-01T08:19:41;3.60;99.90
23532;DHT22;11943;52.270;20.978;2023-02-01T08:22:07;3.60;99.90
23532;DHT22;11943;52.270;20.978;2023-02-01T08:24:33;3.60;99.90
23532;DHT22;11943;52.270;20.978;2023-02-01T08:27:00;3.70;99.90
23532;DHT22;11943;52.270;20.978;2023-02-01T08:29:25;3.70;99.90
23532;DHT22;11943;52.270;20.978;2023-02-01T08:31:51;3.70;99.90
23532;DHT22;11943;52.270;20.978;2023-02-01T08:34:17;3.70;99.90
23532;DHT22;11943;52.270;20.978;2023-02-01T08:36:42;4.00;99.90
23532;DHT22;11943;52.270;20.978;2023-02-01T08:39:09;3.80;99.90
23532;DHT22;11943;52.270;20.978;2023-02-01T08:41:35;3.80;99.90
23532;DHT22;11943;52.270;20.978;2023-02-01T08:44:00;3.80;99.90
23532;DHT22;11943;52.270;20.978;2023-02-01T08:46:26;3.80;99.90
23532;DHT22;11943;52.270;20.978;2023-02-01T08:48:52;3.90;99.90
23532;DHT22;11943;52.270;20.978;2023-02-01T08:51:18;3.80;99.90
23532;DHT22;11943;52.270;20.978;2023-02-01T08:53:44;3.80;99.90
23532;DHT22;11943;52.270;20.978;2023-02-01T08:56:10;3.70;99.90
23532;DHT22;11943;52.270;20.978;2023-02-01T08:58:36;4.00;99.90
23532;DHT22;11943;52.270;20.978;2023-02-01T09:01:05;3.70;99.90
23532;DHT22;11943;52.270;20.978;2023-02-01T09:03:31;3.70;99.90
23532;DHT22;11943;52.270;20.978;2023-02-01T09:06:02;3.80;99.90
23532;DHT22;11943;52.270;20.978;2023-02-01T09:08:28;3.90;99.90
23532;DHT22;11943;52.270;20.978;2023-02-01T09:10:57;4.00;99.90
23532;DHT22;11943;52.270;20.978;2023-02-01T09:13:23;4.50;99.90
23532;DHT22;11943;52.270;20.978;2023-02-01T09:15:50;4.10;99.90
23532;DHT22;11943;52.270;20.978;2023-02-01T09:18:16;4.10;99.90
23532;DHT22;11943;52.270;20.978;2023-02-01T09:20:41;4.10;99.90
23532;DHT22;11943;52.270;20.978;2023-02-01T09:23:07;4.10;99.90
23532;DHT22;11943;52.270;20.978;2023-02-01T09:25:32;4.10;99.90
23532;DHT22;11943;52.270;20.978;2023-02-01T09:27:58;4.10;99.90
23532;DHT22;11943;52.270;20.978;2023-02-01T09:30:23;4.10;99.90
23532;DHT22;11943;52.270;20.978;2023-02-01T09:32:49;4.20;99.90
23532;DHT22;11943;52.270;20.978;2023-02-01T09:35:14;4.20;99.90
23532;DHT22;11943;52.270;20.978;2023-02-01T09:37:40;4.20;99.90
23532;DHT22;11943;52.270;20.978;2023-02-01T09:40:05;4.20;99.90
23532;DHT22;11943;52.270;20.978;2023-02-01T09:43:17;4.30;99.90
23532;DHT22;11943;52.270;20.978;2023-02-01T09:45:22;4.40;99.90
23532;DHT22;11943;52.270;20.978;2023-02-01T09:47:54;4.50;99.90
23532;DHT22;11943;52.270;20.978;2023-02-01T09:50:21;4.60;99.90
23532;DHT22;11943;52.270;20.978;2023-02-01T09:52:55;4.70;99.90
23532;DHT22;11943;52.270;20.978;2023-02-01T09:55:26;4.80;99.90
23532;DHT22;11943;52.270;20.978;2023-02-01T10:00:25;4.70;99.90
23532;DHT22;11943;52.270;20.978;2023-02-01T10:02:51;4.70;99.90
23532;DHT22;11943;52.270;20.978;2023-02-01T10:05:18;4.80;99.90
23532;DHT22;11943;52.270;20.978;2023-02-01T10:07:51;4.80;99.90
23532;DHT22;11943;52.270;20.978;2023-02-01T10:10:34;4.80;99.90
23532;DHT22;11943;52.270;20.978;2023-02-01T10:13:10;4.80;99.90
23532;DHT22;11943;52.270;20.978;2023-02-01T10:18:33;4.80;99.90
23532;DHT22;11943;52.270;20.978;2023-02-01T10:21:02;4.80;99.90
23532;DHT22;11943;52.270;20.978;2023-02-01T10:28:36;4.80;99.90
23532;DHT22;11943;52.270;20.978;2023-02-01T10:31:03;4.80;99.90
23532;DHT22;11943;52.270;20.978;2023-02-01T10:33:33;4.80;99.90
23532;DHT22;11943;52.270;20.978;2023-02-01T10:36:04;4.70;99.90
23532;DHT22;11943;52.270;20.978;2023-02-01T10:38:32;4.70;99.90
23532;DHT22;11943;52.270;20.978;2023-02-01T10:41:02;4.70;99.90
23532;DHT22;11943;52.270;20.978;2023-02-01T10:43:28;4.70;99.90
23532;DHT22;11943;52.270;20.978;2023-02-01T10:45:54;4.80;99.90
23532;DHT22;11943;52.270;20.978;2023-02-01T10:48:19;4.80;99.90
23532;DHT22;11943;52.270;20.978;2023-02-01T10:53:47;4.90;99.90
23532;DHT22;11943;52.270;20.978;2023-02-01T10:56:18;5.00;99.90
23532;DHT22;11943;52.270;20.978;2023-02-01T10:58:46;5.10;99.90
23532;DHT22;11943;52.270;20.978;2023-02-01T11:01:16;5.20;99.90
23532;DHT22;11943;52.270;20.978;2023-02-01T11:03:58;5.20;99.90
23532;DHT22;11943;52.270;20.978;2023-02-01T11:11:30;5.20;99.90
23532;DHT22;11943;52.270;20.978;2023-02-01T11:14:00;5.20;99.90
23532;DHT22;11943;52.270;20.978;2023-02-01T11:16:28;5.10;99.90
23532;DHT22;11943;52.270;20.978;2023-02-01T11:18:54;5.00;99.90
23532;DHT22;11943;52.270;20.978;2023-02-01T11:21:21;5.00;99.90
23532;DHT22;11943;52.270;20.978;2023-02-01T11:23:47;5.00;99.90
23532;DHT22;11943;52.270;20.978;2023-02-01T11:26:23;5.00;99.90
23532;DHT22;11943;52.270;20.978;2023-02-01T11:28:59;5.00;99.90
23532;DHT22;11943;52.270;20.978;2023-02-01T11:31:27;5.00;99.90
23532;DHT22;11943;52.270;20.978;2023-02-01T11:34:00;5.00;99.90
23532;DHT22;11943;52.270;20.978;2023-02-01T11:36:30;4.90;99.90
23532;DHT22;11943;52.270;20.978;2023-02-01T11:41:41;5.00;99.90
23532;DHT22;11943;52.270;20.978;2023-02-01T11:44:19;5.00;99.90
23532;DHT22;11943;52.270;20.978;2023-02-01T11:46:45;5.00;99.90
23532;DHT22;11943;52.270;20.978;2023-02-01T11:49:19;5.00;99.90
23532;DHT22;11943;52.270;20.978;2023-02-01T11:59:49;5.10;99.90
23532;DHT22;11943;52.270;20.978;2023-02-01T12:02:24;5.20;99.90
23532;DHT22;11943;52.270;20.978;2023-02-01T12:04:57;5.20;99.90
23532;DHT22;11943;52.270;20.978;2023-02-01T12:07:48;5.30;99.90
23532;DHT22;11943;52.270;20.978;2023-02-01T12:19:16;4.90;99.90
23532;DHT22;11943;52.270;20.978;2023-02-01T12:31:15;4.80;99.90
23532;DHT22;11943;52.270;20.978;2023-02-01T12:33:52;4.90;99.90
23532;DHT22;11943;52.270;20.978;2023-02-01T12:41:48;5.00;99.90
23532;DHT22;11943;52.270;20.978;2023-02-01T12:44:20;5.00;99.90
23532;DHT22;11943;52.270;20.978;2023-02-01T12:46:53;5.00;99.90
23532;DHT22;11943;52.270;20.978;2023-02-01T12:49:26;5.10;99.90
23532;DHT22;11943;52.270;20.978;2023-02-01T12:51:55;5.20;99.90
23532;DHT22;11943;52.270;20.978;2023-02-01T13:01:56;5.30;99.90
23532;DHT22;11943;52.270;20.978;2023-02-01T13:04:47;5.30;99.90
23532;DHT22;11943;52.270;20.978;2023-02-01T13:07:19;5.30;99.90
23532;DHT22;11943;52.270;20.978;2023-02-01T13:09:51;5.20;99.90
23532;DHT22;11943;52.270;20.978;2023-02-01T13:12:20;5.10;99.90
23532;DHT22;11943;52.270;20.978;2023-02-01T13:15:11;5.10;99.90
23532;DHT22;11943;52.270;20.978;2023-02-01T13:17:34;5.10;99.90
23532;DHT22;11943;52.270;20.978;2023-02-01T13:20:05;5.00;99.90
23532;DHT22;11943;52.270;20.978;2023-02-01T13:22:37;5.10;99.90
23532;DHT22;11943;52.270;20.978;2023-02-01T13:25:13;5.10;99.90
23532;DHT22;11943;52.270;20.978;2023-02-01T13:27:41;5.20;99.90
23532;DHT22;11943;52.270;20.978;2023-02-01T13:32:52;5.20;99.90
23532;DHT22;11943;52.270;20.978;2023-02-01T13:42:52;5.00;99.90
23532;DHT22;11943;52.270;20.978;2023-02-01T13:45:20;5.00;99.90
23532;DHT22;11943;52.270;20.978;2023-02-01T13:47:48;5.00;99.90
23532;DHT22;11943;52.270;20.978;2023-02-01T13:55:46;4.90;99.90
23532;DHT22;11943;52.270;20.978;2023-02-01T13:58:19;4.90;99.90
23532;DHT22;11943;52.270;20.978;2023-02-01T14:00:45;4.80;99.90
23532;DHT22;11943;52.270;20.978;2023-02-01T14:03:18;4.90;99.90
23532;DHT22;11943;52.270;20.978;2023-02-01T14:08:22;4.80;99.90
23532;DHT22;11943;52.270;20.978;2023-02-01T14:10:48;4.70;99.90
23532;DHT22;11943;52.270;20.978;2023-02-01T14:13:30;4.70;99.90
23532;DHT22;11943;52.270;20.978;2023-02-01T14:21:24;4.80;99.90
23532;DHT22;11943;52.270;20.978;2023-02-01T14:29:10;4.90;99.90
23532;DHT22;11943;52.270;20.978;2023-02-01T14:34:13;4.90;99.90
23532;DHT22;11943;52.270;20.978;2023-02-01T14:36:40;4.80;99.90
23532;DHT22;11943;52.270;20.978;2023-02-01T14:39:18;4.80;99.90
23532;DHT22;11943;52.270;20.978;2023-02-01T14:41:44;4.80;99.90
23532;DHT22;11943;52.270;20.978;2023-02-01T14:49:20;4.80;99.90
23532;DHT22;11943;52.270;20.978;2023-02-01T14:51:46;4.90;99.90
23532;DHT22;11943;52.270;20.978;2023-02-01T14:54:12;4.90;99.90
23532;DHT22;11943;52.270;20.978;2023-02-01T14:56:39;4.90;99.90
23532;DHT22;11943;52.270;20.978;2023-02-01T14:59:08;4.90;99.90
23532;DHT22;11943;52.270;20.978;2023-02-01T15:01:38;4.90;99.90
23532;DHT22;11943;52.270;20.978;2023-02-01T15:14:26;4.90;99.90
23532;DHT22;11943;52.270;20.978;2023-02-01T15:16:52;4.90;99.90
23532;DHT22;11943;52.270;20.978;2023-02-01T15:19:21;4.80;99.90
23532;DHT22;11943;52.270;20.978;2023-02-01T15:21:48;4.80;99.90
23532;DHT22;11943;52.270;20.978;2023-02-01T15:24:27;4.80;99.90
23532;DHT22;11943;52.270;20.978;2023-02-01T15:26:53;4.80;99.90
23532;DHT22;11943;52.270;20.978;2023-02-01T15:29:20;4.80;99.90
23532;DHT22;11943;52.270;20.978;2023-02-01T15:31:48;4.80;99.90
23532;DHT22;11943;52.270;20.978;2023-02-01T15:34:14;4.80;99.90
23532;DHT22;11943;52.270;20.978;2023-02-01T15:36:40;4.70;99.90
23532;DHT22;11943;52.270;20.978;2023-02-01T15:39:22;4.80;99.90
23532;DHT22;11943;52.270;20.978;2023-02-01T15:41:57;4.70;99.90
23532;DHT22;11943;52.270;20.978;2023-02-01T15:44:28;4.70;99.90
23532;DHT22;11943;52.270;20.978;2023-02-01T15:46:55;4.70;99.90
23532;DHT22;11943;52.270;20.978;2023-02-01T15:51:46;4.70;99.90
23532;DHT22;11943;52.270;20.978;2023-02-01T15:54:13;4.70;99.90
23532;DHT22;11943;52.270;20.978;2023-02-01T15:56:44;4.70;99.90
23532;DHT22;11943;52.270;20.978;2023-02-01T15:59:17;4.70;99.90
23532;DHT22;11943;52.270;20.978;2023-02-01T16:01:43;4.70;99.90
23532;DHT22;11943;52.270;20.978;2023-02-01T16:04:15;4.60;99.90
23532;DHT22;11943;52.270;20.978;2023-02-01T16:06:46;4.60;99.90
23532;DHT22;11943;52.270;20.978;2023-02-01T16:09:12;4.50;99.90
23532;DHT22;11943;52.270;20.978;2023-02-01T16:12:22;4.50;99.90
23532;DHT22;11943;52.270;20.978;2023-02-01T16:14:27;4.50;99.90
23532;DHT22;11943;52.270;20.978;2023-02-01T16:16:54;4.40;99.90
23532;DHT22;11943;52.270;20.978;2023-02-01T16:19:20;4.40;99.90
23532;DHT22;11943;52.270;20.978;2023-02-01T16:21:47;4.40;99.90
23532;DHT22;11943;52.270;20.978;2023-02-01T16:24:13;4.40;99.90
23532;DHT22;11943;52.270;20.978;2023-02-01T16:26:38;4.30;99.90
23532;DHT22;11943;52.270;20.978;2023-02-01T16:29:04;4.30;99.90
23532;DHT22;11943;52.270;20.978;2023-02-01T16:31:33;4.40;99.90
23532;DHT22;11943;52.270;20.978;2023-02-01T16:33:59;4.30;99.90
23532;DHT22;11943;52.270;20.978;2023-02-01T16:36:25;4.30;99.90
23532;DHT22;11943;52.270;20.978;2023-02-01T16:38:50;4.30;99.90
23532;DHT22;11943;52.270;20.978;2023-02-01T16:41:19;4.30;99.90
23532;DHT22;11943;52.270;20.978;2023-02-01T16:43:45;4.30;99.90
23532;DHT22;11943;52.270;20.978;2023-02-01T16:46:15;4.30;99.90
23532;DHT22;11943;52.270;20.978;2023-02-01T16:48:41;4.30;99.90
23532;DHT22;11943;52.270;20.978;2023-02-01T16:51:12;2.60;99.90
23532;DHT22;11943;52.270;20.978;2023-02-01T16:53:38;4.20;99.90
23532;DHT22;11943;52.270;20.978;2023-02-01T16:56:13;4.20;99.90
23532;DHT22;11943;52.270;20.978;2023-02-01T16:58:40;4.20;99.90
23532;DHT22;11943;52.270;20.978;2023-02-01T17:01:08;4.20;99.90
23532;DHT22;11943;52.270;20.978;2023-02-01T17:03:34;4.20;99.90
23532;DHT22;11943;52.270;20.978;2023-02-01T17:05:59;4.20;99.90
23532;DHT22;11943;52.270;20.978;2023-02-01T17:08:27;4.20;99.90
23532;DHT22;11943;52.270;20.978;2023-02-01T17:10:53;4.30;99.90
23532;DHT22;11943;52.270;20.978;2023-02-01T17:13:19;5.00;99.90
23532;DHT22;11943;52.270;20.978;2023-02-01T17:15:55;4.30;99.90
23532;DHT22;11943;52.270;20.978;2023-02-01T17:18:21;4.30;99.90
23532;DHT22;11943;52.270;20.978;2023-02-01T17:20:47;4.30;99.90
23532;DHT22;11943;52.270;20.978;2023-02-01T17:23:13;4.30;99.90
23532;DHT22;11943;52.270;20.978;2023-02-01T17:25:39;4.30;99.90
23532;DHT22;11943;52.270;20.978;2023-02-01T17:28:05;4.20;99.90
23532;DHT22;11943;52.270;20.978;2023-02-01T17:30:31;4.30;99.90
23532;DHT22;11943;52.270;20.978;2023-02-01T17:32:56;4.30;99.90
23532;DHT22;11943;52.270;20.978;2023-02-01T17:35:23;4.30;99.90
23532;DHT22;11943;52.270;20.978;2023-02-01T17:37:49;4.20;99.90
23532;DHT22;11943;52.270;20.978;2023-02-01T17:40:15;4.20;99.90
23532;DHT22;11943;52.270;20.978;2023-02-01T17:42:40;4.20;99.90
23532;DHT22;11943;52.270;20.978;2023-02-01T17:47:50;4.20;99.90
23532;DHT22;11943;52.270;20.978;2023-02-01T17:50:16;4.20;99.90
23532;DHT22;11943;52.270;20.978;2023-02-01T17:52:42;4.20;99.90
23532;DHT22;11943;52.270;20.978;2023-02-01T17:55:18;4.10;99.90
23532;DHT22;11943;52.270;20.978;2023-02-01T17:57:44;4.10;99.90